Terminal Aerodrome Forecast
Issued by NWS

Home | Current Version | Previous Version | Text Only | Print | Product List | Glossary On
Versions: 1 2 3 4 5 6 7 8 9 10 11 12 13 14 15 16 17 18 19 20 21 22 23 24 25 26 27
523
FTUS46 KMTR 280942 AAA
TAFSFO
TAF AMD
KSFO 280942Z 2810/2912 27012KT P6SM FEW008 OVC011
     FM281200 26008KT P6SM OVC007
     FM281700 28010KT P6SM SCT014
     FM282000 29018G22KT P6SM FEW022
     FM290500 27012KT P6SM OVC015
     FM290900 28008KT P6SM OVC008=

USA.gov is the U.S. government's official web portal to all federal, state and local government web resources and services.